Burns, TN (37029)

2:25 PM CST on December 06, 2016 (GMT -0600)
Oakwood | | Change Station

Elev 850 ft 36.02 °N, 87.32 °W | Updated 41 seconds ago

Overcast
Overcast
44.8 °F
Feels Like 45 °F
N
0.0
Wind Variable Wind from West
Gusts 4.7 mph

Today
High -- | Low -- °F
--% Chance of Precip.
Yesterday
High -- | Low -- °F
Precip. -- in
Pressure 29.82 in
Visibility 8.0 miles
Clouds Overcast 800 ft
Windchill 45 °F
Dew Point 44 °F
Humidity 95%
Rainfall 0.91 in
Snow Depth Not available.
6:46 AM 4:34 PM
Waxing Crescent, 45% visible
METAR KBNA 061953Z 32011G18KT 8SM OVC008 09/07 A2982 RMK AO2 DZE00 SLP098 P0000 T00890072
Pressure 29.82 in
Visibility 8.0 miles
Clouds Overcast 800 ft
Windchill 45 °F
Dew Point 44 °F
Humidity 95%
Rainfall 0.91 in
Snow Depth Not available.
6:46 AM 4:34 PM
Waxing Crescent, 45% visible
METAR KBNA 061953Z 32011G18KT 8SM OVC008 09/07 A2982 RMK AO2 DZE00 SLP098 P0000 T00890072

10-Day Weather Forecast

Almanac

Astronomy

Dec. 06, 2016 Rise Set
Actual Time
Civil Twilight
Nautical Twilight
Astronomical Twilight
Moon
Length of Visible Light
Length of Day
Tomorrow will be .
, % of the Moon is Illuminated

Today's Extremes

State Highs State Lows

Community

WunderPhotos

Upload Photos

1,956,020 photos uploaded!

WunderBlog® & News

Nearby

Air Quality

  Air Quality AQ Index Pollutant
Not available.

Snow Depth

Station Depth Elevation

Earthquake Activity

City Distance Mag. Time & Date
Minimum magnitude displayed is 2.5.

Coastal Water Temperatures

Place Temperature

Stations

Nearby Weather Stations

Station Location Temp. Windchill Dew Point Humidity Wind Precip. Elev Updated Type
                   

Watches & Warnings

There are currently no watches in effect.